sensor_id;sensor_type;location;lat;lon;timestamp;pressure;altitude;pressure_sealevel;temperature;humidity
8047;BME280;74083;42.516;23.358;2024-03-08T00:02:26;88302.31;;;5.35;72.42
8047;BME280;74083;42.516;23.358;2024-03-08T00:05:15;88302.41;;;5.34;72.59
8047;BME280;74083;42.516;23.358;2024-03-08T00:08:02;88300.88;;;5.31;72.28
8047;BME280;74083;42.516;23.358;2024-03-08T00:10:48;88302.41;;;5.34;72.55
8047;BME280;74083;42.516;23.358;2024-03-08T00:13:34;88304.09;;;5.33;72.25
8047;BME280;74083;42.516;23.358;2024-03-08T00:16:20;88302.47;;;5.32;72.68
8047;BME280;74083;42.516;23.358;2024-03-08T00:19:07;88304.97;;;5.32;72.63
8047;BME280;74083;42.516;23.358;2024-03-08T00:21:55;88299.97;;;5.32;72.22
8047;BME280;74083;42.516;23.358;2024-03-08T00:24:40;88293.41;;;5.31;72.51
8047;BME280;74083;42.516;23.358;2024-03-08T00:27:26;88299.28;;;5.30;72.50
8047;BME280;74083;42.516;23.358;2024-03-08T00:30:11;88290.91;;;5.31;72.00
8047;BME280;74083;42.516;23.358;2024-03-08T00:32:58;88294.16;;;5.32;72.40
8047;BME280;74083;42.516;23.358;2024-03-08T00:35:44;88293.41;;;5.31;72.66
8047;BME280;74083;42.516;23.358;2024-03-08T00:38:31;88291.78;;;5.30;72.68
8047;BME280;74083;42.516;23.358;2024-03-08T00:41:18;88289.19;;;5.32;72.03
8047;BME280;74083;42.516;23.358;2024-03-08T00:44:04;88279.28;;;5.30;72.75
8047;BME280;74083;42.516;23.358;2024-03-08T00:46:49;88278.47;;;5.30;72.33
8047;BME280;74083;42.516;23.358;2024-03-08T00:49:35;88267.69;;;5.29;72.32
8047;BME280;74083;42.516;23.358;2024-03-08T00:52:20;88264.38;;;5.29;72.70
8047;BME280;74083;42.516;23.358;2024-03-08T00:55:10;88264.38;;;5.29;72.34
8047;BME280;74083;42.516;23.358;2024-03-08T00:57:56;88255.19;;;5.29;72.40
8047;BME280;74083;42.516;23.358;2024-03-08T01:00:42;88254.38;;;5.29;72.51
8047;BME280;74083;42.516;23.358;2024-03-08T01:03:28;88251.09;;;5.28;72.45
8047;BME280;74083;42.516;23.358;2024-03-08T01:06:16;88252.78;;;5.28;72.35
8047;BME280;74083;42.516;23.358;2024-03-08T01:09:02;88247.69;;;5.29;72.43
8047;BME280;74083;42.516;23.358;2024-03-08T01:11:52;88247.00;;;5.27;72.32
8047;BME280;74083;42.516;23.358;2024-03-08T01:14:38;88240.38;;;5.26;72.30
8047;BME280;74083;42.516;23.358;2024-03-08T01:17:24;88242.81;;;5.28;72.51
8047;BME280;74083;42.516;23.358;2024-03-08T01:20:10;88237.00;;;5.27;72.19
8047;BME280;74083;42.516;23.358;2024-03-08T01:22:56;88239.41;;;5.29;71.96
8047;BME280;74083;42.516;23.358;2024-03-08T01:25:41;88234.50;;;5.27;72.37
8047;BME280;74083;42.516;23.358;2024-03-08T01:28:30;88230.31;;;5.28;72.35
8047;BME280;74083;42.516;23.358;2024-03-08T01:31:16;88232.00;;;5.27;72.53
8047;BME280;74083;42.516;23.358;2024-03-08T01:34:01;88237.88;;;5.26;72.22
8047;BME280;74083;42.516;23.358;2024-03-08T01:36:47;88233.78;;;5.25;72.60
8047;BME280;74083;42.516;23.358;2024-03-08T01:39:32;88235.50;;;5.25;72.52
8047;BME280;74083;42.516;23.358;2024-03-08T01:42:18;88242.97;;;5.25;72.69
8047;BME280;74083;42.516;23.358;2024-03-08T01:45:07;88238.00;;;5.25;72.49
8047;BME280;74083;42.516;23.358;2024-03-08T01:47:52;88242.97;;;5.25;72.60
8047;BME280;74083;42.516;23.358;2024-03-08T01:50:38;88239.56;;;5.26;72.65
8047;BME280;74083;42.516;23.358;2024-03-08T01:53:24;88237.19;;;5.24;72.51
8047;BME280;74083;42.516;23.358;2024-03-08T01:56:11;88231.38;;;5.24;72.60
8047;BME280;74083;42.516;23.358;2024-03-08T01:58:58;88224.69;;;5.24;72.33
8047;BME280;74083;42.516;23.358;2024-03-08T02:01:46;88218.06;;;5.23;72.32
8047;BME280;74083;42.516;23.358;2024-03-08T02:04:31;88224.75;;;5.23;72.35
8047;BME280;74083;42.516;23.358;2024-03-08T02:07:18;88216.38;;;5.24;72.69
8047;BME280;74083;42.516;23.358;2024-03-08T02:10:05;88222.25;;;5.23;72.87
8047;BME280;74083;42.516;23.358;2024-03-08T02:12:51;88224.69;;;5.24;72.28
8047;BME280;74083;42.516;23.358;2024-03-08T02:15:50;88228.97;;;5.22;72.69
8047;BME280;74083;42.516;23.358;2024-03-08T02:18:37;88218.19;;;5.22;72.82
8047;BME280;74083;42.516;23.358;2024-03-08T02:21:25;88223.97;;;5.22;72.45
8047;BME280;74083;42.516;23.358;2024-03-08T02:24:10;88225.66;;;5.22;72.37
8047;BME280;74083;42.516;23.358;2024-03-08T02:26:56;88230.66;;;5.22;72.69
8047;BME280;74083;42.516;23.358;2024-03-08T02:29:42;88228.97;;;5.22;72.30
8047;BME280;74083;42.516;23.358;2024-03-08T02:32:28;88228.97;;;5.22;72.88
8047;BME280;74083;42.516;23.358;2024-03-08T02:35:17;88228.97;;;5.22;72.57
8047;BME280;74083;42.516;23.358;2024-03-08T02:38:04;88232.25;;;5.23;72.70
8047;BME280;74083;42.516;23.358;2024-03-08T02:40:51;88225.56;;;5.23;72.55
8047;BME280;74083;42.516;23.358;2024-03-08T02:43:36;88235.50;;;5.25;72.59
8047;BME280;74083;42.516;23.358;2024-03-08T02:46:22;88231.47;;;5.22;72.89
8047;BME280;74083;42.516;23.358;2024-03-08T02:49:08;88231.53;;;5.21;72.84
8047;BME280;74083;42.516;23.358;2024-03-08T02:51:55;88238.06;;;5.23;72.82
8047;BME280;74083;42.516;23.358;2024-03-08T02:54:42;88243.97;;;5.22;72.92
8047;BME280;74083;42.516;23.358;2024-03-08T02:57:29;88242.25;;;5.23;72.90
8047;BME280;74083;42.516;23.358;2024-03-08T03:00:15;88236.88;;;5.15;73.21
8047;BME280;74083;42.516;23.358;2024-03-08T03:03:00;88246.53;;;5.21;72.57
8047;BME280;74083;42.516;23.358;2024-03-08T03:05:47;88243.22;;;5.20;72.88
8047;BME280;74083;42.516;23.358;2024-03-08T03:08:33;88242.34;;;5.21;72.46
8047;BME280;74083;42.516;23.358;2024-03-08T03:11:20;88243.22;;;5.20;72.44
8047;BME280;74083;42.516;23.358;2024-03-08T03:14:06;88244.13;;;5.19;72.88
8047;BME280;74083;42.516;23.358;2024-03-08T03:16:53;88243.22;;;5.20;72.48
8047;BME280;74083;42.516;23.358;2024-03-08T03:19:40;88246.63;;;5.19;72.73
8047;BME280;74083;42.516;23.358;2024-03-08T03:22:26;88250.72;;;5.20;73.02
8047;BME280;74083;42.516;23.358;2024-03-08T03:25:14;88250.81;;;5.19;72.83
8047;BME280;74083;42.516;23.358;2024-03-08T03:28:09;88248.22;;;5.20;72.43
8047;BME280;74083;42.516;23.358;2024-03-08T03:30:55;88260.00;;;5.18;72.73
8047;BME280;74083;42.516;23.358;2024-03-08T03:33:42;88262.50;;;5.18;72.68
8047;BME280;74083;42.516;23.358;2024-03-08T03:36:28;88257.59;;;5.17;72.57
8047;BME280;74083;42.516;23.358;2024-03-08T03:39:14;88262.50;;;5.18;72.40
8047;BME280;74083;42.516;23.358;2024-03-08T03:42:04;88260.88;;;5.17;72.61
8047;BME280;74083;42.516;23.358;2024-03-08T03:44:51;88261.78;;;5.16;72.71
8047;BME280;74083;42.516;23.358;2024-03-08T03:47:37;88262.78;;;5.14;72.84
8047;BME280;74083;42.516;23.358;2024-03-08T03:50:23;88265.16;;;5.15;72.84
8047;BME280;74083;42.516;23.358;2024-03-08T03:53:08;88267.66;;;5.15;72.93
8047;BME280;74083;42.516;23.358;2024-03-08T03:55:54;88266.03;;;5.14;72.93
8047;BME280;74083;42.516;23.358;2024-03-08T03:58:39;88271.03;;;5.14;72.62
8047;BME280;74083;42.516;23.358;2024-03-08T04:01:26;88266.16;;;5.13;72.96
8047;BME280;74083;42.516;23.358;2024-03-08T04:04:13;88271.94;;;5.13;72.82
8047;BME280;74083;42.516;23.358;2024-03-08T04:06:59;88277.81;;;5.12;72.94
8047;BME280;74083;42.516;23.358;2024-03-08T04:09:46;88276.03;;;5.14;72.64
8047;BME280;74083;42.516;23.358;2024-03-08T04:12:31;88278.53;;;5.14;72.54
8047;BME280;74083;42.516;23.358;2024-03-08T04:15:17;88282.75;;;5.14;72.72
8047;BME280;74083;42.516;23.358;2024-03-08T04:18:04;88278.63;;;5.13;72.48
8047;BME280;74083;42.516;23.358;2024-03-08T04:20:50;88287.81;;;5.12;72.72
8047;BME280;74083;42.516;23.358;2024-03-08T04:23:35;88284.50;;;5.12;72.52
8047;BME280;74083;42.516;23.358;2024-03-08T04:26:21;88290.41;;;5.11;72.72
8047;BME280;74083;42.516;23.358;2024-03-08T04:29:06;88291.19;;;5.11;72.75
8047;BME280;74083;42.516;23.358;2024-03-08T04:31:52;88292.00;;;5.12;72.29
8047;BME280;74083;42.516;23.358;2024-03-08T04:34:40;88295.41;;;5.11;72.53
8047;BME280;74083;42.516;23.358;2024-03-08T04:37:25;88300.41;;;5.11;72.31
8047;BME280;74083;42.516;23.358;2024-03-08T04:40:13;88299.66;;;5.08;72.67
8047;BME280;74083;42.516;23.358;2024-03-08T04:42:59;88305.47;;;5.09;72.86
8047;BME280;74083;42.516;23.358;2024-03-08T04:45:44;88299.59;;;5.10;72.75
8047;BME280;74083;42.516;23.358;2024-03-08T04:48:30;88305.38;;;5.11;72.50
8047;BME280;74083;42.516;23.358;2024-03-08T04:51:17;88307.94;;;5.09;72.86
8047;BME280;74083;42.516;23.358;2024-03-08T04:54:03;88308.84;;;5.08;72.58
8047;BME280;74083;42.516;23.358;2024-03-08T04:56:50;88316.31;;;5.08;72.39
8047;BME280;74083;42.516;23.358;2024-03-08T04:59:35;88315.44;;;5.09;72.47
8047;BME280;74083;42.516;23.358;2024-03-08T05:02:21;88315.53;;;5.07;72.49
8047;BME280;74083;42.516;23.358;2024-03-08T05:05:08;88320.53;;;5.07;72.39
8047;BME280;74083;42.516;23.358;2024-03-08T05:07:57;88313.13;;;5.06;72.61
8047;BME280;74083;42.516;23.358;2024-03-08T05:10:43;88314.72;;;5.07;72.29
8047;BME280;74083;42.516;23.358;2024-03-08T05:13:28;88314.72;;;5.07;72.54
8047;BME280;74083;42.516;23.358;2024-03-08T05:16:14;88323.09;;;5.06;72.33
8047;BME280;74083;42.516;23.358;2024-03-08T05:19:00;88318.09;;;5.06;72.32
8047;BME280;74083;42.516;23.358;2024-03-08T05:21:46;88324.72;;;5.07;72.50
8047;BME280;74083;42.516;23.358;2024-03-08T05:24:33;88329.72;;;5.07;72.49
8047;BME280;74083;42.516;23.358;2024-03-08T05:27:19;88333.91;;;5.06;72.66
8047;BME280;74083;42.516;23.358;2024-03-08T05:30:06;88334.88;;;5.04;72.71
8047;BME280;74083;42.516;23.358;2024-03-08T05:32:58;88337.38;;;5.04;72.63
8047;BME280;74083;42.516;23.358;2024-03-08T05:35:44;88338.25;;;5.03;72.63
8047;BME280;74083;42.516;23.358;2024-03-08T05:38:29;88343.25;;;5.03;72.44
8047;BME280;74083;42.516;23.358;2024-03-08T05:41:16;88346.63;;;5.02;72.40
8047;BME280;74083;42.516;23.358;2024-03-08T05:44:03;88350.72;;;5.03;72.77
8047;BME280;74083;42.516;23.358;2024-03-08T05:46:48;88355.81;;;5.01;72.61
8047;BME280;74083;42.516;23.358;2024-03-08T05:49:34;88357.41;;;5.02;72.23
8047;BME280;74083;42.516;23.358;2024-03-08T05:52:20;88364.91;;;5.02;72.48
8047;BME280;74083;42.516;23.358;2024-03-08T05:55:06;88365.88;;;5.00;72.94
8047;BME280;74083;42.516;23.358;2024-03-08T05:57:55;88369.09;;;5.02;72.35
8047;BME280;74083;42.516;23.358;2024-03-08T06:00:41;88369.09;;;5.02;72.42
8047;BME280;74083;42.516;23.358;2024-03-08T06:03:27;88372.50;;;5.01;72.23
8047;BME280;74083;42.516;23.358;2024-03-08T06:06:12;88375.00;;;5.01;72.14
8047;BME280;74083;42.516;23.358;2024-03-08T06:08:58;88369.28;;;4.99;72.51
8047;BME280;74083;42.516;23.358;2024-03-08T06:11:44;88379.97;;;5.01;72.01
8047;BME280;74083;42.516;23.358;2024-03-08T06:14:31;88378.38;;;5.00;72.62
8047;BME280;74083;42.516;23.358;2024-03-08T06:17:16;88380.84;;;5.00;72.30
8047;BME280;74083;42.516;23.358;2024-03-08T06:20:02;88386.56;;;5.02;72.31
8047;BME280;74083;42.516;23.358;2024-03-08T06:22:54;88383.34;;;5.00;72.29
8047;BME280;74083;42.516;23.358;2024-03-08T06:25:40;88388.34;;;5.00;72.10
8047;BME280;74083;42.516;23.358;2024-03-08T06:28:26;88390.13;;;4.98;72.42
8047;BME280;74083;42.516;23.358;2024-03-08T06:31:12;88395.84;;;5.00;72.26
8047;BME280;74083;42.516;23.358;2024-03-08T06:33:59;88390.84;;;5.00;72.50
8047;BME280;74083;42.516;23.358;2024-03-08T06:36:44;88390.94;;;4.98;72.60
8047;BME280;74083;42.516;23.358;2024-03-08T06:39:29;88394.25;;;4.99;72.68
8047;BME280;74083;42.516;23.358;2024-03-08T06:42:16;88393.44;;;4.98;72.49
8047;BME280;74083;42.516;23.358;2024-03-08T06:45:02;88397.53;;;4.99;72.71
8047;BME280;74083;42.516;23.358;2024-03-08T06:47:51;88400.13;;;4.98;72.82
8047;BME280;74083;42.516;23.358;2024-03-08T06:50:36;88403.41;;;4.98;72.71
8047;BME280;74083;42.516;23.358;2024-03-08T06:53:22;88404.31;;;4.97;72.59
8047;BME280;74083;42.516;23.358;2024-03-08T06:56:08;88411.78;;;4.97;72.56
8047;BME280;74083;42.516;23.358;2024-03-08T06:58:54;88410.97;;;4.97;72.98
8047;BME280;74083;42.516;23.358;2024-03-08T07:01:39;88411.78;;;4.97;72.42
8047;BME280;74083;42.516;23.358;2024-03-08T07:04:26;88410.91;;;4.98;72.66
8047;BME280;74083;42.516;23.358;2024-03-08T07:07:13;88409.28;;;4.97;72.67
8047;BME280;74083;42.516;23.358;2024-03-08T07:09:59;88410.91;;;4.98;72.49
8047;BME280;74083;42.516;23.358;2024-03-08T07:12:45;88410.09;;;4.98;72.64
8047;BME280;74083;42.516;23.358;2024-03-08T07:15:31;88412.50;;;4.99;72.54
8047;BME280;74083;42.516;23.358;2024-03-08T07:18:16;88413.47;;;4.97;72.88
8047;BME280;74083;42.516;23.358;2024-03-08T07:21:03;88407.78;;;4.95;72.97
8047;BME280;74083;42.516;23.358;2024-03-08T07:23:49;88412.75;;;4.95;73.02
8047;BME280;74083;42.516;23.358;2024-03-08T07:26:57;88420.25;;;4.95;73.14
8047;BME280;74083;42.516;23.358;2024-03-08T07:29:43;88420.31;;;4.93;73.11
8047;BME280;74083;42.516;23.358;2024-03-08T07:32:29;88419.53;;;4.93;72.83
8047;BME280;74083;42.516;23.358;2024-03-08T07:35:16;88414.44;;;4.94;72.95
8047;BME280;74083;42.516;23.358;2024-03-08T07:38:05;88418.63;;;4.94;72.83
8047;BME280;74083;42.516;23.358;2024-03-08T07:40:51;88420.31;;;4.93;73.05
8047;BME280;74083;42.516;23.358;2024-03-08T07:43:36;88417.91;;;4.92;72.51
8047;BME280;74083;42.516;23.358;2024-03-08T07:46:22;88420.41;;;4.92;72.58
8047;BME280;74083;42.516;23.358;2024-03-08T07:49:07;88412.94;;;4.92;72.97
8047;BME280;74083;42.516;23.358;2024-03-08T07:51:54;88418.78;;;4.91;73.06
8047;BME280;74083;42.516;23.358;2024-03-08T07:54:42;88417.09;;;4.91;72.87
8047;BME280;74083;42.516;23.358;2024-03-08T07:57:28;88422.09;;;4.91;72.66
8047;BME280;74083;42.516;23.358;2024-03-08T08:00:14;88423.72;;;4.92;72.98
8047;BME280;74083;42.516;23.358;2024-03-08T08:03:02;88417.81;;;4.93;72.77
8047;BME280;74083;42.516;23.358;2024-03-08T08:05:48;88417.91;;;4.92;73.02
8047;BME280;74083;42.516;23.358;2024-03-08T08:08:33;88418.78;;;4.91;73.08
8047;BME280;74083;42.516;23.358;2024-03-08T08:11:20;88425.41;;;4.92;73.21
8047;BME280;74083;42.516;23.358;2024-03-08T08:14:05;88422.81;;;4.93;72.83
8047;BME280;74083;42.516;23.358;2024-03-08T08:16:53;88428.63;;;4.94;73.19
8047;BME280;74083;42.516;23.358;2024-03-08T08:19:41;88430.41;;;4.92;73.41
8047;BME280;74083;42.516;23.358;2024-03-08T08:22:27;88432.03;;;4.93;73.14
8047;BME280;74083;42.516;23.358;2024-03-08T08:25:12;88427.91;;;4.92;73.35
8047;BME280;74083;42.516;23.358;2024-03-08T08:28:00;88417.53;;;4.84;73.48
8047;BME280;74083;42.516;23.358;2024-03-08T08:30:48;88426.22;;;4.92;73.32
8047;BME280;74083;42.516;23.358;2024-03-08T08:33:33;88429.59;;;4.91;73.52
8047;BME280;74083;42.516;23.358;2024-03-08T08:36:20;88430.41;;;4.92;73.04
8047;BME280;74083;42.516;23.358;2024-03-08T08:39:06;88434.59;;;4.91;73.37
8047;BME280;74083;42.516;23.358;2024-03-08T08:41:57;88433.78;;;4.91;73.30
8047;BME280;74083;42.516;23.358;2024-03-08T08:44:44;88429.69;;;4.90;73.25
8047;BME280;74083;42.516;23.358;2024-03-08T08:47:30;88427.97;;;4.90;73.46
8047;BME280;74083;42.516;23.358;2024-03-08T08:50:16;88422.19;;;4.90;73.58
8047;BME280;74083;42.516;23.358;2024-03-08T08:53:06;88422.25;;;4.88;73.64
8047;BME280;74083;42.516;23.358;2024-03-08T08:55:52;88423.13;;;4.87;73.61
8047;BME280;74083;42.516;23.358;2024-03-08T08:58:38;88425.72;;;4.86;73.69
8047;BME280;74083;42.516;23.358;2024-03-08T09:01:25;88428.22;;;4.86;73.26
8047;BME280;74083;42.516;23.358;2024-03-08T09:04:11;88422.19;;;4.90;73.14
8047;BME280;74083;42.516;23.358;2024-03-08T09:06:56;88431.28;;;4.91;73.37
8047;BME280;74083;42.516;23.358;2024-03-08T09:09:42;88428.94;;;4.88;73.40
8047;BME280;74083;42.516;23.358;2024-03-08T09:12:28;88435.63;;;4.87;73.12
8047;BME280;74083;42.516;23.358;2024-03-08T09:15:15;88438.13;;;4.87;73.25
8047;BME280;74083;42.516;23.358;2024-03-08T09:18:03;88435.72;;;4.86;73.80
8047;BME280;74083;42.516;23.358;2024-03-08T09:20:50;88438.06;;;4.89;73.15
8047;BME280;74083;42.516;23.358;2024-03-08T09:23:37;88437.94;;;4.90;73.44
8047;BME280;74083;42.516;23.358;2024-03-08T09:26:24;88438.94;;;4.88;73.38
8047;BME280;74083;42.516;23.358;2024-03-08T09:29:10;88438.22;;;4.86;73.42
8047;BME280;74083;42.516;23.358;2024-03-08T09:31:56;88435.72;;;4.86;73.72
8047;BME280;74083;42.516;23.358;2024-03-08T09:34:42;88438.13;;;4.87;73.39
8047;BME280;74083;42.516;23.358;2024-03-08T09:37:28;88438.22;;;4.86;73.49
8047;BME280;74083;42.516;23.358;2024-03-08T09:40:15;88433.38;;;4.83;73.35
8047;BME280;74083;42.516;23.358;2024-03-08T09:43:04;88439.00;;;4.86;73.61
8047;BME280;74083;42.516;23.358;2024-03-08T09:45:50;88450.59;;;4.87;73.48
8047;BME280;74083;42.516;23.358;2024-03-08T09:48:36;88445.69;;;4.86;73.74
8047;BME280;74083;42.516;23.358;2024-03-08T09:51:28;88444.81;;;4.87;73.49
8047;BME280;74083;42.516;23.358;2024-03-08T09:54:14;88445.69;;;4.86;73.87
8047;BME280;74083;42.516;23.358;2024-03-08T09:57:03;88440.69;;;4.86;73.43
8047;BME280;74083;42.516;23.358;2024-03-08T09:59:49;88444.81;;;4.87;73.66
8047;BME280;74083;42.516;23.358;2024-03-08T10:02:35;88439.88;;;4.85;73.47
8047;BME280;74083;42.516;23.358;2024-03-08T10:05:21;88435.72;;;4.86;73.58
8047;BME280;74083;42.516;23.358;2024-03-08T10:08:08;88435.72;;;4.86;73.41
8047;BME280;74083;42.516;23.358;2024-03-08T10:10:54;88447.31;;;4.87;73.78
8047;BME280;74083;42.516;23.358;2024-03-08T10:13:42;88441.56;;;4.85;73.45
8047;BME280;74083;42.516;23.358;2024-03-08T10:16:30;88440.69;;;4.86;73.64
8047;BME280;74083;42.516;23.358;2024-03-08T10:19:16;88446.56;;;4.85;73.91
8047;BME280;74083;42.516;23.358;2024-03-08T10:22:02;88444.06;;;4.85;73.61
8047;BME280;74083;42.516;23.358;2024-03-08T10:24:50;88443.19;;;4.86;73.93
8047;BME280;74083;42.516;23.358;2024-03-08T10:27:36;88447.38;;;4.85;74.03
8047;BME280;74083;42.516;23.358;2024-03-08T10:30:21;88444.88;;;4.85;73.79
8047;BME280;74083;42.516;23.358;2024-03-08T10:33:07;88438.22;;;4.86;73.59
8047;BME280;74083;42.516;23.358;2024-03-08T10:35:53;88444.88;;;4.85;73.89
8047;BME280;74083;42.516;23.358;2024-03-08T10:38:41;88444.88;;;4.85;73.58
8047;BME280;74083;42.516;23.358;2024-03-08T10:41:32;88441.69;;;4.83;73.54
8047;BME280;74083;42.516;23.358;2024-03-08T10:44:32;88443.28;;;4.84;73.74
8047;BME280;74083;42.516;23.358;2024-03-08T10:47:26;88435.00;;;4.84;73.54
8047;BME280;74083;42.516;23.358;2024-03-08T10:50:18;88443.28;;;4.84;73.52
8047;BME280;74083;42.516;23.358;2024-03-08T10:53:06;88437.50;;;4.84;73.61
8047;BME280;74083;42.516;23.358;2024-03-08T10:55:52;88440.00;;;4.84;73.86
8047;BME280;74083;42.516;23.358;2024-03-08T10:58:40;88435.00;;;4.84;73.99
8047;BME280;74083;42.516;23.358;2024-03-08T11:01:26;88433.31;;;4.84;73.64
8047;BME280;74083;42.516;23.358;2024-03-08T11:04:11;88433.31;;;4.84;73.73
8047;BME280;74083;42.516;23.358;2024-03-08T11:07:00;88429.19;;;4.83;74.05
8047;BME280;74083;42.516;23.358;2024-03-08T11:09:50;88427.41;;;4.85;73.80
8047;BME280;74083;42.516;23.358;2024-03-08T11:12:36;88420.91;;;4.83;74.12
8047;BME280;74083;42.516;23.358;2024-03-08T11:15:24;88425.00;;;4.84;74.09
8047;BME280;74083;42.516;23.358;2024-03-08T11:18:10;88424.91;;;4.85;73.99
8047;BME280;74083;42.516;23.358;2024-03-08T11:20:56;88414.13;;;4.85;73.90
8047;BME280;74083;42.516;23.358;2024-03-08T11:23:42;88411.88;;;4.80;74.06
8047;BME280;74083;42.516;23.358;2024-03-08T11:26:29;88416.63;;;4.85;73.90
8047;BME280;74083;42.516;23.358;2024-03-08T11:29:35;88412.44;;;4.85;74.26
8047;BME280;74083;42.516;23.358;2024-03-08T11:32:27;88414.94;;;4.85;74.21
8047;BME280;74083;42.516;23.358;2024-03-08T11:35:18;88414.13;;;4.85;74.01
8047;BME280;74083;42.516;23.358;2024-03-08T11:38:04;88414.94;;;4.85;74.27
8047;BME280;74083;42.516;23.358;2024-03-08T11:40:50;88415.84;;;4.84;74.20
8047;BME280;74083;42.516;23.358;2024-03-08T11:43:36;88417.44;;;4.85;74.49
8047;BME280;74083;42.516;23.358;2024-03-08T11:46:24;88414.13;;;4.85;74.54
8047;BME280;74083;42.516;23.358;2024-03-08T11:49:13;88413.25;;;4.86;74.03
8047;BME280;74083;42.516;23.358;2024-03-08T11:51:59;88419.88;;;4.87;74.26
8047;BME280;74083;42.516;23.358;2024-03-08T11:54:51;88408.25;;;4.86;74.17
8047;BME280;74083;42.516;23.358;2024-03-08T11:57:37;88409.94;;;4.85;74.57
8047;BME280;74083;42.516;23.358;2024-03-08T12:00:23;88408.34;;;4.84;74.34
8047;BME280;74083;42.516;23.358;2024-03-08T12:03:10;88404.94;;;4.85;74.54
8047;BME280;74083;42.516;23.358;2024-03-08T12:05:58;88409.13;;;4.85;74.49
8047;BME280;74083;42.516;23.358;2024-03-08T12:08:45;88408.34;;;4.84;74.68
8047;BME280;74083;42.516;23.358;2024-03-08T12:11:33;88409.13;;;4.85;74.23
8047;BME280;74083;42.516;23.358;2024-03-08T12:14:20;88408.34;;;4.84;74.60
8047;BME280;74083;42.516;23.358;2024-03-08T12:17:07;88409.13;;;4.85;74.75
8047;BME280;74083;42.516;23.358;2024-03-08T12:19:54;88402.56;;;4.84;74.30
8047;BME280;74083;42.516;23.358;2024-03-08T12:22:42;88403.38;;;4.84;74.08
8047;BME280;74083;42.516;23.358;2024-03-08T12:25:30;88402.56;;;4.84;74.68
8047;BME280;74083;42.516;23.358;2024-03-08T12:28:19;88401.66;;;4.85;74.45
8047;BME280;74083;42.516;23.358;2024-03-08T12:31:07;88399.16;;;4.85;74.47
8047;BME280;74083;42.516;23.358;2024-03-08T12:33:55;88385.25;;;4.81;74.56
8047;BME280;74083;42.516;23.358;2024-03-08T12:36:47;88400.78;;;4.86;74.67
8047;BME280;74083;42.516;23.358;2024-03-08T12:39:34;88393.28;;;4.86;74.39
8047;BME280;74083;42.516;23.358;2024-03-08T12:42:21;88398.19;;;4.87;74.46
8047;BME280;74083;42.516;23.358;2024-03-08T12:45:08;88393.28;;;4.86;74.42
8047;BME280;74083;42.516;23.358;2024-03-08T12:47:55;88395.78;;;4.86;74.93
8047;BME280;74083;42.516;23.358;2024-03-08T12:50:41;88389.91;;;4.87;74.88
8047;BME280;74083;42.516;23.358;2024-03-08T12:53:29;88391.59;;;4.86;74.49
8047;BME280;74083;42.516;23.358;2024-03-08T12:56:28;88385.78;;;4.86;74.80
8047;BME280;74083;42.516;23.358;2024-03-08T12:59:14;88390.69;;;4.87;74.92
8047;BME280;74083;42.516;23.358;2024-03-08T13:02:00;88390.78;;;4.86;75.03
8047;BME280;74083;42.516;23.358;2024-03-08T13:04:46;88394.09;;;4.86;75.02
8047;BME280;74083;42.516;23.358;2024-03-08T13:07:39;88389.09;;;4.86;74.75
8047;BME280;74083;42.516;23.358;2024-03-08T13:10:25;88390.78;;;4.86;74.92
8047;BME280;74083;42.516;23.358;2024-03-08T13:13:12;88389.97;;;4.85;75.20
8047;BME280;74083;42.516;23.358;2024-03-08T13:16:01;88397.41;;;4.87;74.46
8047;BME280;74083;42.516;23.358;2024-03-08T13:18:47;88399.88;;;4.87;74.74
8047;BME280;74083;42.516;23.358;2024-03-08T13:21:33;88401.56;;;4.86;74.60
8047;BME280;74083;42.516;23.358;2024-03-08T13:24:19;88400.78;;;4.86;74.94
8047;BME280;74083;42.516;23.358;2024-03-08T13:27:06;88403.16;;;4.87;74.58
8047;BME280;74083;42.516;23.358;2024-03-08T13:30:05;88398.28;;;4.86;74.73
8047;BME280;74083;42.516;23.358;2024-03-08T13:32:54;88395.78;;;4.86;74.91
8047;BME280;74083;42.516;23.358;2024-03-08T13:35:39;88394.09;;;4.86;74.72
8047;BME280;74083;42.516;23.358;2024-03-08T13:38:25;88393.28;;;4.86;74.66
8047;BME280;74083;42.516;23.358;2024-03-08T13:41:12;88396.66;;;4.85;74.97
8047;BME280;74083;42.516;23.358;2024-03-08T13:43:58;88397.41;;;4.87;74.63
8047;BME280;74083;42.516;23.358;2024-03-08T13:46:46;88388.28;;;4.86;74.74
8047;BME280;74083;42.516;23.358;2024-03-08T13:49:35;88394.81;;;4.88;74.88
8047;BME280;74083;42.516;23.358;2024-03-08T13:52:21;88389.97;;;4.85;74.60
8047;BME280;74083;42.516;23.358;2024-03-08T13:55:09;88396.59;;;4.86;74.46
8047;BME280;74083;42.516;23.358;2024-03-08T13:57:55;88392.41;;;4.87;74.67
8047;BME280;74083;42.516;23.358;2024-03-08T14:00:43;88390.78;;;4.86;74.66
8047;BME280;74083;42.516;23.358;2024-03-08T14:03:33;88379.19;;;4.85;74.92
8047;BME280;74083;42.516;23.358;2024-03-08T14:06:20;88383.28;;;4.86;74.92
8047;BME280;74083;42.516;23.358;2024-03-08T14:09:08;88386.59;;;4.86;74.54
8047;BME280;74083;42.516;23.358;2024-03-08T14:11:59;88388.28;;;4.86;74.55
8047;BME280;74083;42.516;23.358;2024-03-08T14:14:45;88385.69;;;4.87;74.48
8047;BME280;74083;42.516;23.358;2024-03-08T14:17:32;88380.00;;;4.85;74.71
8047;BME280;74083;42.516;23.358;2024-03-08T14:20:19;88373.31;;;4.86;74.92
8047;BME280;74083;42.516;23.358;2024-03-08T14:23:09;88388.28;;;4.86;74.71
8047;BME280;74083;42.516;23.358;2024-03-08T14:25:57;88381.59;;;4.86;74.79
8047;BME280;74083;42.516;23.358;2024-03-08T14:28:43;88380.00;;;4.85;74.70
8047;BME280;74083;42.516;23.358;2024-03-08T14:31:30;88385.78;;;4.86;74.61
8047;BME280;74083;42.516;23.358;2024-03-08T14:34:15;88384.16;;;4.85;74.79
8047;BME280;74083;42.516;23.358;2024-03-08T14:37:03;88383.28;;;4.86;74.50
8047;BME280;74083;42.516;23.358;2024-03-08T14:39:52;88385.78;;;4.86;74.67
8047;BME280;74083;42.516;23.358;2024-03-08T14:42:41;88378.41;;;4.84;75.13
8047;BME280;74083;42.516;23.358;2024-03-08T14:45:29;88383.28;;;4.86;74.55
8047;BME280;74083;42.516;23.358;2024-03-08T14:48:14;88380.00;;;4.85;74.50
8047;BME280;74083;42.516;23.358;2024-03-08T14:51:00;88380.81;;;4.86;74.89
8047;BME280;74083;42.516;23.358;2024-03-08T14:53:49;88385.78;;;4.86;74.67
8047;BME280;74083;42.516;23.358;2024-03-08T14:56:35;88382.47;;;4.85;74.70